Time;durP1;ratioP1;P1;durP2;ratioP2;P2;SDS_P1;SDS_P2;PMS_P1;PMS_P2;Temp;Humidity;BMP_temperature;BMP_pressure;BME280_temperature;BME280_humidity;BME280_pressure;Samples;Min_cycle;Max_cycle;Signal;HPM_P1;HPM_P2
2021/06/09 00:02:22;;;;;;;6.60;4.20;;;;;;;;;;4906486;29;20028;-78
2021/06/09 00:04:49;;;;;;;9.20;4.65;;;;;;;;;;4903112;29;20507;-75
2021/06/09 00:07:15;;;;;;;5.72;4.47;;;;;;;;;;4928492;29;20028;-77
2021/06/09 00:09:41;;;;;;;7.55;4.30;;;;;;;;;;4920572;29;20087;-76
2021/06/09 00:12:08;;;;;;;6.32;4.40;;;;;;;;;;4918344;29;20040;-76
2021/06/09 00:14:34;;;;;;;5.90;4.75;;;;;;;;;;4918189;29;20020;-77
2021/06/09 00:17:15;;;;;;;6.47;4.63;;;;;;;;;;4922115;29;20585;-77
2021/06/09 00:19:42;;;;;;;10.75;4.72;;;;;;;;;;4904657;29;20119;-77
2021/06/09 00:22:08;;;;;;;8.05;4.50;;;;;;;;;;4908909;29;20075;-78
2021/06/09 00:24:38;;;;;;;11.05;4.70;;;;;;;;;;4917458;29;20024;-77
2021/06/09 00:27:04;;;;;;;9.88;4.50;;;;;;;;;;4900549;29;20402;-76
2021/06/09 00:29:30;;;;;;;7.63;4.63;;;;;;;;;;4907292;29;20184;-75
2021/06/09 00:31:57;;;;;;;9.75;5.00;;;;;;;;;;4914829;29;20493;-77
2021/06/09 00:34:23;;;;;;;7.72;4.40;;;;;;;;;;4921363;29;20538;-78
2021/06/09 00:36:49;;;;;;;7.03;4.40;;;;;;;;;;4910982;29;20032;-79
2021/06/09 00:39:15;;;;;;;8.18;4.80;;;;;;;;;;4922007;29;20071;-77
2021/06/09 00:41:41;;;;;;;7.70;4.70;;;;;;;;;;4905417;29;20028;-77
2021/06/09 00:44:07;;;;;;;8.80;5.03;;;;;;;;;;4904726;29;20135;-76
2021/06/09 00:46:35;;;;;;;10.65;4.80;;;;;;;;;;4916120;29;20039;-76
2021/06/09 00:49:01;;;;;;;7.22;4.78;;;;;;;;;;4910383;29;20024;-77
2021/06/09 00:51:27;;;;;;;7.78;4.35;;;;;;;;;;4917285;29;20040;-83
2021/06/09 00:53:59;;;;;;;7.03;4.93;;;;;;;;;;4912647;29;20028;-76
2021/06/09 00:56:26;;;;;;;7.63;4.72;;;;;;;;;;4909983;29;20088;-81
2021/06/09 00:58:53;;;;;;;6.68;4.65;;;;;;;;;;4916959;29;20035;-80
2021/06/09 01:01:20;;;;;;;7.05;5.15;;;;;;;;;;4912699;29;20032;-81
2021/06/09 01:03:46;;;;;;;9.55;5.25;;;;;;;;;;4904075;29;20475;-77
2021/06/09 01:06:13;;;;;;;11.57;5.20;;;;;;;;;;4916705;29;20051;-79
2021/06/09 01:08:39;;;;;;;11.63;4.97;;;;;;;;;;4920345;29;20104;-75
2021/06/09 01:11:13;;;;;;;12.20;5.07;;;;;;;;;;4911219;29;20569;-77
2021/06/09 01:13:39;;;;;;;;;;;;;;;;;;4908524;29;20029;-76
2021/06/09 01:16:05;;;;;;;7.07;4.80;;;;;;;;;;4902451;29;19931;-78
2021/06/09 01:18:31;;;;;;;11.15;4.65;;;;;;;;;;4915450;29;20107;-76
2021/06/09 01:20:58;;;;;;;6.82;4.90;;;;;;;;;;4915783;29;20028;-77
2021/06/09 01:23:24;;;;;;;10.18;5.07;;;;;;;;;;4921955;29;20032;-76
2021/06/09 01:25:50;;;;;;;7.18;4.65;;;;;;;;;;4917347;29;20513;-76
2021/06/09 01:28:16;;;;;;;9.27;4.88;;;;;;;;;;4915325;29;20035;-78
2021/06/09 01:30:43;;;;;;;7.03;4.72;;;;;;;;;;4913233;29;20043;-79
2021/06/09 01:33:09;;;;;;;8.73;4.60;;;;;;;;;;4903591;29;20033;-85
2021/06/09 01:35:36;;;;;;;7.57;4.70;;;;;;;;;;4916469;29;20031;-81
2021/06/09 01:38:02;;;;;;;7.07;4.97;;;;;;;;;;4913712;29;20766;-78
2021/06/09 01:40:28;;;;;;;8.98;4.85;;;;;;;;;;4913674;29;20471;-77
2021/06/09 01:42:55;;;;;;;6.40;4.97;;;;;;;;;;4908550;29;20043;-76
2021/06/09 01:45:23;;;;;;;7.28;4.70;;;;;;;;;;4915720;29;20035;-77
2021/06/09 01:47:50;;;;;;;8.32;5.20;;;;;;;;;;4911852;29;20096;-78
2021/06/09 01:50:17;;;;;;;9.90;5.20;;;;;;;;;;4913151;29;20032;-81
2021/06/09 01:52:43;;;;;;;10.30;5.20;;;;;;;;;;4907132;29;20039;-77
2021/06/09 01:55:10;;;;;;;6.40;5.00;;;;;;;;;;4915859;29;20035;-78
2021/06/09 01:57:36;;;;;;;7.25;4.88;;;;;;;;;;4922915;29;20023;-80
2021/06/09 02:00:08;;;;;;;13.07;5.35;;;;;;;;;;4920160;29;20032;-76
2021/06/09 02:02:34;;;;;;;9.05;5.18;;;;;;;;;;4924481;29;20052;-77
2021/06/09 02:05:00;;;;;;;9.93;5.63;;;;;;;;;;4914028;29;20446;-77
2021/06/09 02:07:26;;;;;;;10.18;5.45;;;;;;;;;;4919443;29;20426;-77
2021/06/09 02:09:53;;;;;;;8.15;5.13;;;;;;;;;;4922278;29;20035;-77
2021/06/09 02:12:21;;;;;;;7.10;5.22;;;;;;;;;;4909622;29;20062;-76
2021/06/09 02:14:48;;;;;;;10.50;5.78;;;;;;;;;;4905952;29;20016;-81
2021/06/09 02:17:15;;;;;;;7.47;4.80;;;;;;;;;;4908826;29;20056;-76
2021/06/09 02:19:41;;;;;;;8.80;5.40;;;;;;;;;;4912448;29;20032;-77
2021/06/09 02:22:07;;;;;;;9.00;5.03;;;;;;;;;;4914767;29;20020;-77
2021/06/09 02:24:33;;;;;;;10.95;5.20;;;;;;;;;;4914146;29;20065;-76
2021/06/09 02:27:01;;;;;;;8.13;4.70;;;;;;;;;;4917434;29;20553;-77
2021/06/09 02:29:27;;;;;;;6.65;4.95;;;;;;;;;;4909032;29;20065;-77
2021/06/09 02:31:53;;;;;;;8.60;4.80;;;;;;;;;;4914652;29;20497;-78
2021/06/09 02:34:21;;;;;;;8.07;5.03;;;;;;;;;;4910576;29;20471;-78
2021/06/09 02:36:51;;;;;;;7.38;5.07;;;;;;;;;;4918329;29;20448;-76
2021/06/09 02:39:18;;;;;;;7.45;5.20;;;;;;;;;;4902163;29;20036;-76
2021/06/09 02:41:44;;;;;;;10.93;5.18;;;;;;;;;;4905568;29;20506;-78
2021/06/09 02:44:10;;;;;;;8.55;4.80;;;;;;;;;;4909267;29;20038;-77
2021/06/09 02:46:38;;;;;;;7.65;4.90;;;;;;;;;;4914030;29;20126;-77
2021/06/09 02:49:07;;;;;;;12.38;5.60;;;;;;;;;;4915078;29;20803;-77
2021/06/09 02:51:37;;;;;;;7.60;5.07;;;;;;;;;;4915478;29;20547;-77
2021/06/09 02:54:23;;;;;;;6.93;5.30;;;;;;;;;;4915922;29;20086;-81
2021/06/09 02:57:05;;;;;;;6.93;5.10;;;;;;;;;;4907927;29;20028;-82
2021/06/09 02:59:55;;;;;;;8.05;5.10;;;;;;;;;;4918327;29;20516;-76
2021/06/09 03:02:26;;;;;;;6.43;5.03;;;;;;;;;;4919712;29;20498;-78
2021/06/09 03:04:54;;;;;;;7.97;5.45;;;;;;;;;;4917996;29;20036;-77
2021/06/09 03:07:26;;;;;;;9.27;4.97;;;;;;;;;;4920041;29;20541;-76
2021/06/09 03:09:56;;;;;;;9.27;4.80;;;;;;;;;;4920011;29;20470;-83
2021/06/09 03:12:39;;;;;;;7.00;4.97;;;;;;;;;;4906990;29;20044;-85
2021/06/09 03:15:12;;;;;;;;;;;;;;;;;;4901190;29;20048;-78
2021/06/09 03:18:04;;;;;;;7.93;4.90;;;;;;;;;;4910462;29;19923;-77
2021/06/09 03:20:33;;;;;;;9.18;4.75;;;;;;;;;;4916105;29;20067;-78
2021/06/09 03:23:10;;;;;;;7.10;5.18;;;;;;;;;;4897430;29;20384;-77
2021/06/09 03:25:39;;;;;;;9.50;5.25;;;;;;;;;;4927018;29;20034;-76
2021/06/09 03:28:18;;;;;;;7.78;5.28;;;;;;;;;;4912583;29;20502;-77
2021/06/09 03:30:47;;;;;;;8.07;5.00;;;;;;;;;;4906865;29;20036;-82
2021/06/09 03:33:14;;;;;;;8.68;5.75;;;;;;;;;;4914502;29;20122;-77
2021/06/09 03:35:48;;;;;;;7.20;4.80;;;;;;;;;;4920653;29;20382;-84
2021/06/09 03:38:18;;;;;;;11.18;5.10;;;;;;;;;;4905194;29;20025;-76
2021/06/09 03:40:45;;;;;;;6.32;4.90;;;;;;;;;;4911536;29;20499;-77
2021/06/09 03:43:12;;;;;;;9.65;5.07;;;;;;;;;;4911862;29;20076;-82
2021/06/09 03:45:47;;;;;;;12.38;5.15;;;;;;;;;;4913339;29;20035;-77
2021/06/09 03:48:14;;;;;;;10.85;5.72;;;;;;;;;;4909484;29;20100;-77
2021/06/09 03:50:44;;;;;;;9.60;5.28;;;;;;;;;;4898641;29;20045;-76
2021/06/09 03:53:11;;;;;;;10.60;4.88;;;;;;;;;;4905646;29;20033;-78
2021/06/09 03:55:38;;;;;;;10.05;4.68;;;;;;;;;;4918548;29;20094;-77
2021/06/09 03:58:05;;;;;;;8.27;5.35;;;;;;;;;;4919051;29;20039;-77
2021/06/09 04:00:32;;;;;;;8.60;5.45;;;;;;;;;;4916564;29;20084;-77
2021/06/09 04:02:59;;;;;;;8.00;5.38;;;;;;;;;;4893046;29;20115;-79
2021/06/09 04:05:26;;;;;;;8.82;5.43;;;;;;;;;;4907330;29;20050;-77
2021/06/09 04:07:54;;;;;;;11.80;5.90;;;;;;;;;;4921120;29;20099;-80
2021/06/09 04:10:21;;;;;;;8.95;5.90;;;;;;;;;;4909592;29;20056;-79
2021/06/09 04:12:48;;;;;;;16.90;5.70;;;;;;;;;;4911939;29;20474;-75
2021/06/09 04:15:14;;;;;;;11.00;5.60;;;;;;;;;;4911414;29;20036;-77
2021/06/09 04:17:43;;;;;;;11.55;5.40;;;;;;;;;;4912688;29;20135;-77
2021/06/09 04:20:21;;;;;;;10.98;5.40;;;;;;;;;;4918358;29;20025;-75
2021/06/09 04:22:50;;;;;;;10.27;5.53;;;;;;;;;;4921853;29;20020;-76
2021/06/09 04:25:16;;;;;;;18.02;6.43;;;;;;;;;;4914914;29;20029;-76
2021/06/09 04:27:44;;;;;;;15.07;5.63;;;;;;;;;;4919021;29;20032;-76
2021/06/09 04:30:11;;;;;;;10.35;5.50;;;;;;;;;;4920384;29;20070;-79
2021/06/09 04:32:56;;;;;;;12.63;6.10;;;;;;;;;;4924072;29;20035;-77
2021/06/09 04:35:26;;;;;;;8.38;5.63;;;;;;;;;;4916496;29;20505;-76
2021/06/09 04:37:52;;;;;;;13.38;5.85;;;;;;;;;;4911256;29;20035;-80
2021/06/09 04:40:20;;;;;;;17.85;7.25;;;;;;;;;;4910389;29;20031;-78
2021/06/09 04:42:47;;;;;;;12.55;5.75;;;;;;;;;;4895979;29;20610;-84
2021/06/09 04:45:13;;;;;;;12.50;5.95;;;;;;;;;;4924626;29;20140;-77
2021/06/09 04:47:39;;;;;;;11.98;5.97;;;;;;;;;;4913518;29;20048;-76
2021/06/09 04:50:06;;;;;;;11.52;5.47;;;;;;;;;;4907035;29;20051;-76
2021/06/09 04:52:32;;;;;;;13.88;6.60;;;;;;;;;;4912615;29;20036;-79
2021/06/09 04:54:58;;;;;;;9.98;5.45;;;;;;;;;;4912821;29;20025;-77
2021/06/09 04:57:27;;;;;;;14.05;5.72;;;;;;;;;;4908365;29;20032;-74
2021/06/09 04:59:53;;;;;;;11.20;5.60;;;;;;;;;;4917126;29;20020;-89
2021/06/09 05:02:20;;;;;;;10.88;5.85;;;;;;;;;;4901740;29;20398;-87
2021/06/09 05:04:46;;;;;;;15.35;5.68;;;;;;;;;;4909564;29;20025;-78
2021/06/09 05:07:13;;;;;;;10.23;6.80;;;;;;;;;;4904795;29;20043;-87
2021/06/09 05:09:39;;;;;;;11.63;6.78;;;;;;;;;;4898834;29;20032;-86
2021/06/09 05:12:14;;;;;;;13.00;6.63;;;;;;;;;;4906357;29;20039;-72
2021/06/09 05:14:45;;;;;;;10.48;6.05;;;;;;;;;;4883798;29;20574;-74
2021/06/09 05:17:12;;;;;;;9.23;5.53;;;;;;;;;;4907225;29;20059;-74
2021/06/09 05:19:39;;;;;;;14.48;6.25;;;;;;;;;;4904107;29;20032;-73
2021/06/09 05:22:09;;;;;;;12.80;5.68;;;;;;;;;;4908461;29;20032;-74
2021/06/09 05:24:35;;;;;;;12.43;6.35;;;;;;;;;;4917535;29;20049;-73
2021/06/09 05:27:02;;;;;;;19.33;6.15;;;;;;;;;;4919175;29;20036;-73
2021/06/09 05:29:29;;;;;;;11.60;5.43;;;;;;;;;;4910576;29;20408;-74
2021/06/09 05:31:55;;;;;;;10.23;5.95;;;;;;;;;;4902586;29;20040;-73
2021/06/09 05:34:22;;;;;;;11.90;5.88;;;;;;;;;;4916451;29;20023;-74
2021/06/09 05:36:49;;;;;;;11.07;5.72;;;;;;;;;;4915875;29;20035;-74
2021/06/09 05:39:16;;;;;;;10.45;5.70;;;;;;;;;;4911604;29;20405;-73
2021/06/09 05:41:42;;;;;;;12.00;5.72;;;;;;;;;;4907592;29;20071;-74
2021/06/09 05:44:08;;;;;;;7.63;5.45;;;;;;;;;;4916729;29;20052;-73
2021/06/09 05:46:34;;;;;;;10.85;5.70;;;;;;;;;;4910524;29;20444;-73
2021/06/09 05:49:00;;;;;;;9.77;5.50;;;;;;;;;;4911782;29;20048;-71
2021/06/09 05:51:29;;;;;;;11.80;5.45;;;;;;;;;;4916146;29;20390;-72
2021/06/09 05:53:56;;;;;;;12.60;5.97;;;;;;;;;;4903969;29;20388;-73
2021/06/09 05:56:22;;;;;;;7.00;5.40;;;;;;;;;;4920124;29;20032;-72
2021/06/09 05:58:48;;;;;;;12.00;5.97;;;;;;;;;;4916178;29;20016;-72
2021/06/09 06:01:14;;;;;;;10.00;5.10;;;;;;;;;;4909970;29;20036;-72
2021/06/09 06:03:41;;;;;;;11.32;5.15;;;;;;;;;;4901807;29;20020;-71
2021/06/09 06:06:14;;;;;;;8.10;5.70;;;;;;;;;;4918280;29;20038;-71
2021/06/09 06:08:42;;;;;;;16.70;9.60;;;;;;;;;;4910628;29;20020;-71
2021/06/09 06:11:12;;;;;;;15.05;11.00;;;;;;;;;;4910575;29;20518;-73
2021/06/09 06:13:38;;;;;;;18.65;9.65;;;;;;;;;;4912676;29;20040;-72
2021/06/09 06:16:05;;;;;;;15.60;9.75;;;;;;;;;;4908063;29;20060;-73
2021/06/09 06:18:32;;;;;;;14.82;8.70;;;;;;;;;;4916443;29;20107;-81
2021/06/09 06:21:00;;;;;;;13.65;7.97;;;;;;;;;;4915509;29;20025;-80
2021/06/09 06:23:27;;;;;;;12.38;6.97;;;;;;;;;;4899726;29;20039;-83
2021/06/09 06:25:59;;;;;;;12.93;7.00;;;;;;;;;;4899594;29;20027;-82
2021/06/09 06:28:25;;;;;;;21.30;8.85;;;;;;;;;;4903184;29;20032;-84
2021/06/09 06:30:52;;;;;;;17.98;8.73;;;;;;;;;;4885309;29;20111;-72
2021/06/09 06:33:19;;;;;;;13.27;7.93;;;;;;;;;;4920417;29;20028;-74
2021/06/09 06:35:45;;;;;;;21.08;9.18;;;;;;;;;;4900775;29;20032;-76
2021/06/09 06:38:13;;;;;;;17.33;7.95;;;;;;;;;;4895650;29;20038;-76
2021/06/09 06:40:39;;;;;;;9.50;6.95;;;;;;;;;;4910606;29;20031;-79
2021/06/09 06:43:06;;;;;;;12.98;6.85;;;;;;;;;;4906524;29;20063;-83
2021/06/09 06:45:32;;;;;;;18.60;7.82;;;;;;;;;;4900272;29;20025;-80
2021/06/09 06:47:58;;;;;;;15.80;7.75;;;;;;;;;;4911472;29;20507;-80
2021/06/09 06:50:25;;;;;;;12.50;7.32;;;;;;;;;;4907505;29;20029;-88
2021/06/09 06:52:52;;;;;;;11.52;6.97;;;;;;;;;;4905138;29;20044;-81
2021/06/09 06:55:19;;;;;;;12.15;6.88;;;;;;;;;;4921015;29;20032;-89
2021/06/09 06:57:45;;;;;;;10.68;7.28;;;;;;;;;;4908582;29;20024;-80
2021/06/09 07:00:13;;;;;;;14.57;7.13;;;;;;;;;;4905278;29;20025;-87
2021/06/09 07:02:39;;;;;;;16.08;7.20;;;;;;;;;;4906877;29;20032;-72
2021/06/09 07:05:09;;;;;;;12.65;6.60;;;;;;;;;;4907413;29;20068;-75
2021/06/09 07:07:36;;;;;;;11.93;6.53;;;;;;;;;;4918180;29;20028;-74
2021/06/09 07:10:08;;;;;;;10.40;6.60;;;;;;;;;;4921343;29;20067;-74
2021/06/09 07:12:37;;;;;;;12.32;6.15;;;;;;;;;;4913336;29;20032;-72
2021/06/09 07:15:07;;;;;;;14.02;6.70;;;;;;;;;;4904849;29;20546;-75
2021/06/09 07:17:39;;;;;;;11.27;6.90;;;;;;;;;;4908969;29;20079;-75
2021/06/09 07:20:09;;;;;;;11.65;6.60;;;;;;;;;;4906613;29;20028;-81
2021/06/09 07:22:36;;;;;;;10.82;6.75;;;;;;;;;;4894023;29;20036;-75
2021/06/09 07:25:02;;;;;;;10.73;6.63;;;;;;;;;;4913075;29;20029;-83
2021/06/09 07:27:31;;;;;;;10.35;6.65;;;;;;;;;;4893487;29;20032;-85
2021/06/09 07:29:57;;;;;;;9.50;6.18;;;;;;;;;;4908800;29;20130;-83
2021/06/09 07:32:25;;;;;;;12.45;6.40;;;;;;;;;;4896051;29;20040;-86
2021/06/09 07:34:51;;;;;;;10.95;6.57;;;;;;;;;;4918289;29;20024;-81
2021/06/09 07:37:19;;;;;;;21.70;7.90;;;;;;;;;;4899792;29;20043;-78
2021/06/09 07:39:49;;;;;;;10.77;6.90;;;;;;;;;;4914069;29;20031;-77
2021/06/09 07:42:17;;;;;;;11.57;6.57;;;;;;;;;;4915231;29;20051;-76
2021/06/09 07:44:56;;;;;;;15.52;7.10;;;;;;;;;;4898048;29;20406;-77
2021/06/09 07:47:22;;;;;;;14.00;7.03;;;;;;;;;;4917229;29;20065;-80
2021/06/09 07:49:53;;;;;;;13.43;7.05;;;;;;;;;;4912988;29;20036;-75
2021/06/09 07:52:26;;;;;;;15.32;7.03;;;;;;;;;;4913069;29;20151;-75
2021/06/09 07:54:53;;;;;;;11.63;6.68;;;;;;;;;;4898249;29;20020;-71
2021/06/09 07:57:24;;;;;;;12.50;6.93;;;;;;;;;;4914632;29;20054;-75
2021/06/09 07:59:50;;;;;;;11.00;6.80;;;;;;;;;;4913130;29;20052;-80
2021/06/09 08:02:20;;;;;;;13.05;7.05;;;;;;;;;;4911399;29;20032;-78
2021/06/09 08:04:47;;;;;;;11.20;6.82;;;;;;;;;;4908314;29;20490;-76
2021/06/09 08:07:13;;;;;;;13.07;7.10;;;;;;;;;;4913894;29;20115;-77
2021/06/09 08:09:39;;;;;;;14.10;6.60;;;;;;;;;;4921811;29;20415;-76
2021/06/09 08:12:06;;;;;;;11.77;7.03;;;;;;;;;;4916338;29;20040;-77
2021/06/09 08:14:34;;;;;;;10.60;7.05;;;;;;;;;;4919073;29;20035;-74
2021/06/09 08:17:01;;;;;;;16.55;7.60;;;;;;;;;;4918203;29;20055;-77
2021/06/09 08:19:27;;;;;;;8.43;6.43;;;;;;;;;;4918122;29;20092;-74
2021/06/09 08:21:53;;;;;;;9.55;6.20;;;;;;;;;;4913894;29;20058;-75
2021/06/09 08:24:19;;;;;;;10.52;6.40;;;;;;;;;;4903666;29;20447;-81
2021/06/09 08:26:46;;;;;;;13.23;6.50;;;;;;;;;;4891788;29;20028;-85
2021/06/09 08:29:12;;;;;;;9.68;6.47;;;;;;;;;;4909129;29;20031;-82
2021/06/09 08:31:41;;;;;;;8.55;6.00;;;;;;;;;;4917980;29;20103;-95
2021/06/09 08:34:10;;;;;;;11.18;6.38;;;;;;;;;;4921125;29;20028;-77
2021/06/09 08:36:44;;;;;;;11.90;6.20;;;;;;;;;;4917037;29;20028;-75
2021/06/09 08:39:10;;;;;;;13.95;7.13;;;;;;;;;;4923657;29;20035;-79
2021/06/09 08:41:37;;;;;;;11.57;6.43;;;;;;;;;;4907294;29;20043;-74
2021/06/09 08:44:04;;;;;;;8.93;6.25;;;;;;;;;;4911859;29;20108;-91
2021/06/09 08:46:31;;;;;;;17.98;7.05;;;;;;;;;;4909529;29;20081;-86
2021/06/09 08:48:58;;;;;;;18.05;9.77;;;;;;;;;;4916600;29;20546;-81
2021/06/09 08:51:26;;;;;;;14.90;9.40;;;;;;;;;;4912755;29;20039;-80
2021/06/09 08:53:53;;;;;;;20.50;11.90;;;;;;;;;;4905678;29;20038;-79
2021/06/09 08:56:20;;;;;;;15.82;10.88;;;;;;;;;;4912439;29;20508;-77
2021/06/09 08:58:49;;;;;;;12.95;9.10;;;;;;;;;;4893603;29;20116;-81
2021/06/09 09:01:16;;;;;;;15.55;8.55;;;;;;;;;;4914557;29;20497;-75
2021/06/09 09:03:43;;;;;;;79.93;50.13;;;;;;;;;;4906831;29;20030;-82
2021/06/09 09:06:09;;;;;;;77.03;46.28;;;;;;;;;;4908949;29;20058;-80
2021/06/09 09:08:36;;;;;;;34.38;19.88;;;;;;;;;;4913946;29;20099;-78
2021/06/09 09:11:02;;;;;;;43.88;22.67;;;;;;;;;;4908002;29;20088;-79
2021/06/09 09:13:28;;;;;;;47.17;31.17;;;;;;;;;;4908886;29;20482;-81
2021/06/09 09:15:55;;;;;;;17.90;12.48;;;;;;;;;;4898493;29;20407;-81
2021/06/09 09:18:22;;;;;;;9.18;6.25;;;;;;;;;;4896019;29;20028;-80
2021/06/09 09:20:49;;;;;;;8.07;5.90;;;;;;;;;;4895374;29;20024;-83
2021/06/09 09:23:26;;;;;;;16.20;6.50;;;;;;;;;;4899306;29;20036;-81
2021/06/09 09:25:56;;;;;;;14.02;8.10;;;;;;;;;;4912999;29;20031;-78
2021/06/09 09:28:30;;;;;;;15.18;7.70;;;;;;;;;;4898013;29;20032;-79
2021/06/09 09:31:10;;;;;;;12.85;7.20;;;;;;;;;;4911859;29;20491;-83
2021/06/09 09:33:36;;;;;;;13.43;6.38;;;;;;;;;;4915400;29;20664;-76
2021/06/09 09:36:22;;;;;;;12.02;7.25;;;;;;;;;;4912166;29;20032;-77
2021/06/09 09:38:48;;;;;;;12.35;7.00;;;;;;;;;;4911123;29;20486;-78
2021/06/09 09:41:18;;;;;;;18.77;7.78;;;;;;;;;;4907161;29;20040;-78
2021/06/09 09:43:54;;;;;;;19.88;7.45;;;;;;;;;;4913960;29;20016;-72
2021/06/09 09:46:32;;;;;;;12.40;6.03;;;;;;;;;;4907213;29;20032;-77
2021/06/09 09:49:08;;;;;;;7.90;5.72;;;;;;;;;;4899427;29;20486;-76
2021/06/09 09:51:36;;;;;;;12.73;5.65;;;;;;;;;;4908166;29;20032;-76
2021/06/09 09:54:04;;;;;;;13.68;5.78;;;;;;;;;;4910795;29;20063;-75
2021/06/09 09:56:31;;;;;;;7.13;4.88;;;;;;;;;;4909876;29;20426;-74
2021/06/09 09:59:03;;;;;;;9.55;5.15;;;;;;;;;;4906066;29;20111;-76
2021/06/09 10:01:33;;;;;;;8.48;4.32;;;;;;;;;;4910505;29;20040;-90
2021/06/09 10:04:00;;;;;;;7.25;5.03;;;;;;;;;;4914177;29;20104;-74
2021/06/09 10:06:34;;;;;;;11.38;5.25;;;;;;;;;;4910071;29;20024;-75
2021/06/09 10:09:38;;;;;;;12.25;5.18;;;;;;;;;;4910570;29;20103;-76
2021/06/09 10:12:06;;;;;;;10.20;4.50;;;;;;;;;;4861843;29;20053;-75
2021/06/09 10:14:36;;;;;;;26.17;5.57;;;;;;;;;;4859986;29;20093;-72
2021/06/09 10:17:04;;;;;;;5.60;4.20;;;;;;;;;;4853456;29;20054;-74
2021/06/09 10:19:32;;;;;;;14.65;4.60;;;;;;;;;;4862539;29;20028;-75
2021/06/09 10:22:05;;;;;;;7.97;4.65;;;;;;;;;;4856345;29;20105;-75
2021/06/09 10:24:42;;;;;;;8.67;4.10;;;;;;;;;;4864978;29;20029;-75
2021/06/09 10:27:08;;;;;;;8.05;4.13;;;;;;;;;;4863609;29;20306;-74
2021/06/09 10:29:35;;;;;;;4.85;4.20;;;;;;;;;;4856037;29;20504;-74
2021/06/09 10:32:02;;;;;;;6.72;4.28;;;;;;;;;;4854971;29;20085;-76
2021/06/09 10:34:30;;;;;;;6.82;3.80;;;;;;;;;;4854060;29;20041;-74
2021/06/09 10:36:58;;;;;;;6.40;3.90;;;;;;;;;;4859031;29;20045;-77
2021/06/09 10:39:25;;;;;;;6.13;4.20;;;;;;;;;;4857547;29;20034;-75
2021/06/09 10:41:55;;;;;;;5.85;4.22;;;;;;;;;;4865384;29;20519;-84
2021/06/09 10:44:23;;;;;;;13.32;4.10;;;;;;;;;;4905373;29;20451;-84
2021/06/09 10:46:50;;;;;;;7.50;3.83;;;;;;;;;;4907297;29;20886;-83
2021/06/09 10:49:18;;;;;;;6.72;3.60;;;;;;;;;;4893744;29;20047;-84
2021/06/09 10:51:48;;;;;;;7.07;3.80;;;;;;;;;;4888323;29;20495;-74
2021/06/09 10:54:15;;;;;;;4.50;3.65;;;;;;;;;;4912716;29;20036;-74
2021/06/09 10:56:46;;;;;;;6.40;3.83;;;;;;;;;;4911517;29;20055;-80
2021/06/09 10:59:15;;;;;;;6.05;3.67;;;;;;;;;;4891797;29;20107;-82
2021/06/09 11:01:43;;;;;;;17.17;4.47;;;;;;;;;;4896647;29;20035;-81
2021/06/09 11:04:09;;;;;;;14.98;4.03;;;;;;;;;;4908188;29;20063;-82
2021/06/09 11:06:38;;;;;;;4.55;3.45;;;;;;;;;;4892834;29;20054;-82
2021/06/09 11:09:28;;;;;;;5.43;3.47;;;;;;;;;;4895772;29;20032;-86
2021/06/09 11:12:12;;;;;;;6.97;3.70;;;;;;;;;;4856671;29;20053;-81
2021/06/09 11:14:53;;;;;;;10.10;3.88;;;;;;;;;;4863030;29;20550;-89
2021/06/09 11:17:36;;;;;;;7.32;3.42;;;;;;;;;;4861831;29;20143;-89
2021/06/09 11:20:22;;;;;;;6.72;3.78;;;;;;;;;;4859129;29;20140;-75
2021/06/09 11:22:52;;;;;;;6.82;3.80;;;;;;;;;;4860123;29;20038;-75
2021/06/09 11:25:18;;;;;;;7.60;4.00;;;;;;;;;;4864075;29;20035;-77
2021/06/09 11:27:51;;;;;;;6.30;3.63;;;;;;;;;;4861091;29;20088;-77
2021/06/09 11:30:17;;;;;;;;;;;;;;;;;;4861372;29;20417;-77
2021/06/09 11:32:43;;;;;;;6.05;3.75;;;;;;;;;;4860561;29;20016;-78
2021/06/09 11:35:09;;;;;;;8.60;4.05;;;;;;;;;;4861765;29;20381;-76
2021/06/09 11:37:36;;;;;;;7.35;4.00;;;;;;;;;;4856414;29;20454;-78
2021/06/09 11:40:04;;;;;;;6.10;3.47;;;;;;;;;;4862239;29;20038;-77
2021/06/09 11:42:31;;;;;;;8.30;3.80;;;;;;;;;;4874723;29;20041;-77
2021/06/09 11:44:58;;;;;;;8.57;3.80;;;;;;;;;;4884410;29;20104;-78
2021/06/09 11:47:25;;;;;;;8.15;3.50;;;;;;;;;;4878973;29;20589;-77
2021/06/09 11:49:53;;;;;;;6.55;3.78;;;;;;;;;;4909324;29;20037;-78
2021/06/09 11:52:20;;;;;;;10.50;3.83;;;;;;;;;;4906568;29;20423;-76
2021/06/09 11:54:47;;;;;;;8.40;4.10;;;;;;;;;;4917870;29;20036;-77
2021/06/09 11:57:21;;;;;;;7.57;3.58;;;;;;;;;;4915116;29;20192;-76
2021/06/09 11:59:49;;;;;;;8.15;3.83;;;;;;;;;;4921172;29;20016;-77
2021/06/09 12:02:22;;;;;;;11.07;4.30;;;;;;;;;;4913112;29;20028;-73
2021/06/09 12:04:49;;;;;;;5.50;3.63;;;;;;;;;;4897684;29;20078;-76
2021/06/09 12:07:21;;;;;;;5.15;3.10;;;;;;;;;;4903837;29;20028;-85
2021/06/09 12:09:48;;;;;;;4.63;3.50;;;;;;;;;;4909020;29;20033;-73
2021/06/09 12:12:19;;;;;;;9.63;3.95;;;;;;;;;;4902683;29;20062;-74
2021/06/09 12:14:52;;;;;;;6.18;3.50;;;;;;;;;;4915344;29;20024;-75
2021/06/09 12:17:23;;;;;;;9.13;3.40;;;;;;;;;;4915328;29;20071;-72
2021/06/09 12:19:53;;;;;;;15.57;4.30;;;;;;;;;;4913982;29;20035;-72
2021/06/09 12:22:24;;;;;;;7.82;3.65;;;;;;;;;;4916441;29;20036;-73
2021/06/09 12:24:59;;;;;;;6.22;3.45;;;;;;;;;;4915489;29;20090;-73
2021/06/09 12:27:28;;;;;;;6.28;3.50;;;;;;;;;;4908688;29;20020;-71
2021/06/09 12:29:54;;;;;;;7.80;3.65;;;;;;;;;;4904216;29;20032;-72
2021/06/09 12:32:24;;;;;;;5.97;3.90;;;;;;;;;;4918776;29;20468;-72
2021/06/09 12:35:01;;;;;;;8.18;3.53;;;;;;;;;;4910017;29;20379;-71
2021/06/09 12:37:28;;;;;;;8.40;3.63;;;;;;;;;;4904086;29;20112;-72
2021/06/09 12:39:57;;;;;;;7.10;3.80;;;;;;;;;;4910732;29;20131;-73
2021/06/09 12:42:24;;;;;;;8.68;3.92;;;;;;;;;;4918771;29;20048;-74
2021/06/09 12:44:52;;;;;;;7.72;3.60;;;;;;;;;;4896593;29;20028;-75
2021/06/09 12:47:32;;;;;;;7.70;4.00;;;;;;;;;;4913749;29;20032;-73
2021/06/09 12:50:08;;;;;;;14.10;4.15;;;;;;;;;;4903839;29;20024;-73
2021/06/09 12:52:34;;;;;;;6.95;3.70;;;;;;;;;;4900324;29;20041;-74
2021/06/09 12:55:01;;;;;;;8.55;3.70;;;;;;;;;;4901639;29;20059;-73
2021/06/09 12:57:30;;;;;;;6.32;3.70;;;;;;;;;;4913111;29;20036;-72
2021/06/09 12:59:56;;;;;;;9.07;3.70;;;;;;;;;;4913924;29;20024;-74
2021/06/09 13:02:27;;;;;;;13.52;3.90;;;;;;;;;;4922198;29;20051;-74
2021/06/09 13:04:53;;;;;;;14.75;3.80;;;;;;;;;;4907225;29;20032;-73
2021/06/09 13:07:23;;;;;;;9.48;3.75;;;;;;;;;;4913855;29;20482;-73
2021/06/09 13:09:59;;;;;;;8.35;3.78;;;;;;;;;;4914212;29;20032;-73
2021/06/09 13:12:34;;;;;;;10.20;4.00;;;;;;;;;;4910860;29;20047;-73
2021/06/09 13:15:01;;;;;;;7.55;3.70;;;;;;;;;;4912430;29;20031;-74
2021/06/09 13:17:28;;;;;;;8.95;3.97;;;;;;;;;;4914639;29;20088;-72
2021/06/09 13:20:07;;;;;;;9.32;3.65;;;;;;;;;;4907147;29;20028;-72
2021/06/09 13:22:47;;;;;;;7.28;3.80;;;;;;;;;;4916622;29;20097;-73
2021/06/09 13:25:13;;;;;;;8.88;3.80;;;;;;;;;;4921847;29;20099;-74
2021/06/09 13:27:40;;;;;;;14.52;4.03;;;;;;;;;;4908283;29;20085;-74
2021/06/09 13:30:12;;;;;;;5.97;3.67;;;;;;;;;;4923182;29;20474;-74
2021/06/09 13:32:40;;;;;;;6.70;3.53;;;;;;;;;;4909490;29;20050;-75
2021/06/09 13:35:10;;;;;;;10.38;4.05;;;;;;;;;;4905196;29;20036;-73
2021/06/09 13:37:41;;;;;;;7.45;3.83;;;;;;;;;;4891289;29;20163;-73
2021/06/09 13:40:09;;;;;;;6.38;3.90;;;;;;;;;;4914360;29;20036;-73
2021/06/09 13:42:37;;;;;;;9.52;4.28;;;;;;;;;;4923244;29;20040;-74
2021/06/09 13:45:06;;;;;;;6.32;3.60;;;;;;;;;;4903134;29;20537;-74
2021/06/09 13:47:35;;;;;;;11.27;4.00;;;;;;;;;;4911566;29;20040;-74
2021/06/09 13:50:05;;;;;;;5.32;3.72;;;;;;;;;;4916143;29;20020;-74
2021/06/09 13:52:36;;;;;;;9.25;3.75;;;;;;;;;;4914561;29;20040;-74
2021/06/09 13:55:12;;;;;;;13.85;3.97;;;;;;;;;;4905958;29;20140;-74
2021/06/09 13:57:49;;;;;;;5.80;3.45;;;;;;;;;;4921131;29;20039;-74
2021/06/09 14:00:15;;;;;;;7.32;3.90;;;;;;;;;;4907865;29;20413;-73
2021/06/09 14:02:47;;;;;;;14.98;3.88;;;;;;;;;;4916357;29;20036;-73
2021/06/09 14:05:21;;;;;;;8.32;3.95;;;;;;;;;;4902709;29;20112;-73
2021/06/09 14:07:57;;;;;;;12.02;4.20;;;;;;;;;;4909295;29;20432;-74
2021/06/09 14:10:25;;;;;;;8.85;3.90;;;;;;;;;;4906768;29;20164;-73
2021/06/09 14:12:51;;;;;;;6.65;3.83;;;;;;;;;;4914641;29;20059;-73
2021/06/09 14:15:22;;;;;;;9.27;4.63;;;;;;;;;;4910279;29;20386;-72
2021/06/09 14:17:49;;;;;;;9.30;4.07;;;;;;;;;;4912485;29;20058;-73
2021/06/09 14:20:16;;;;;;;9.68;4.28;;;;;;;;;;4914277;29;20028;-74
2021/06/09 14:22:47;;;;;;;9.38;4.03;;;;;;;;;;4913520;29;20119;-72
2021/06/09 14:25:21;;;;;;;10.40;4.05;;;;;;;;;;4915711;29;20036;-74
2021/06/09 14:27:52;;;;;;;7.15;3.67;;;;;;;;;;4910487;29;20025;-74
2021/06/09 14:30:20;;;;;;;12.43;4.70;;;;;;;;;;4910012;29;20028;-74
2021/06/09 14:33:37;;;;;;;11.40;4.05;;;;;;;;;;4900344;29;20051;-74
2021/06/09 14:39:00;;;;;;;11.98;4.40;;;;;;;;;;4909872;29;20123;-73
2021/06/09 14:41:30;;;;;;;16.70;4.60;;;;;;;;;;4910689;29;20024;-77
2021/06/09 14:44:03;;;;;;;9.52;4.20;;;;;;;;;;4913403;29;20028;-74
2021/06/09 14:46:29;;;;;;;;;;;;;;;;;;4899838;29;20111;-74
2021/06/09 14:48:56;;;;;;;6.82;4.38;;;;;;;;;;4915497;29;19998;-73
2021/06/09 14:51:26;;;;;;;13.57;4.30;;;;;;;;;;4896769;29;20490;-76
2021/06/09 14:53:53;;;;;;;11.98;4.57;;;;;;;;;;4907779;29;20040;-82